Terminal Aerodrome Forecast
Issued by NWS

Home | Current Version | Previous Version | Text Only | Print | Product List | Glossary On
Versions: 1 2 3 4 5 6 7 8 9 10 11 12
000
FTUS45 KFGZ 260540
TAFGCN
TAF
KGCN 260540Z 2606/2706 VRB05KT P6SM SCT140
     FM261900 08009KT P6SM SCT120 SCT180
     FM270200 VRB04KT P6SM FEW140=

USA.gov is the U.S. government's official web portal to all federal, state and local government web resources and services.